sensor_id;sensor_type;location;lat;lon;timestamp;temperature;humidity
19214;DHT22;9741;51.020;5.304;2022-12-13T00:00:49;-5.00;57.50
19214;DHT22;9741;51.020;5.304;2022-12-13T00:03:17;-5.00;57.60
19214;DHT22;9741;51.020;5.304;2022-12-13T00:05:45;-5.10;57.40
19214;DHT22;9741;51.020;5.304;2022-12-13T00:08:13;-5.10;57.40
19214;DHT22;9741;51.020;5.304;2022-12-13T00:10:43;-5.10;57.50
19214;DHT22;9741;51.020;5.304;2022-12-13T00:13:10;-5.10;57.60
19214;DHT22;9741;51.020;5.304;2022-12-13T00:15:38;-5.10;57.60
19214;DHT22;9741;51.020;5.304;2022-12-13T00:18:06;-5.10;57.60
19214;DHT22;9741;51.020;5.304;2022-12-13T00:20:38;-5.10;57.60
19214;DHT22;9741;51.020;5.304;2022-12-13T00:23:05;-5.10;57.50
19214;DHT22;9741;51.020;5.304;2022-12-13T00:25:35;-5.10;57.50
19214;DHT22;9741;51.020;5.304;2022-12-13T00:28:04;-5.20;57.40
19214;DHT22;9741;51.020;5.304;2022-12-13T00:30:31;-5.20;57.40
19214;DHT22;9741;51.020;5.304;2022-12-13T00:32:58;-5.20;57.40
19214;DHT22;9741;51.020;5.304;2022-12-13T00:35:26;-5.20;57.40
19214;DHT22;9741;51.020;5.304;2022-12-13T00:37:53;-5.20;57.30
19214;DHT22;9741;51.020;5.304;2022-12-13T00:40:21;-5.20;57.40
19214;DHT22;9741;51.020;5.304;2022-12-13T00:42:48;-5.20;57.50
19214;DHT22;9741;51.020;5.304;2022-12-13T00:45:17;-5.20;57.40
19214;DHT22;9741;51.020;5.304;2022-12-13T00:47:45;-5.20;57.50
19214;DHT22;9741;51.020;5.304;2022-12-13T00:50:14;-5.30;57.30
19214;DHT22;9741;51.020;5.304;2022-12-13T00:52:41;-5.30;57.30
19214;DHT22;9741;51.020;5.304;2022-12-13T00:55:09;-5.30;57.30
19214;DHT22;9741;51.020;5.304;2022-12-13T00:57:36;-5.30;57.30
19214;DHT22;9741;51.020;5.304;2022-12-13T01:00:06;-5.30;57.30
19214;DHT22;9741;51.020;5.304;2022-12-13T01:02:35;-5.40;57.80
19214;DHT22;9741;51.020;5.304;2022-12-13T01:05:03;-5.40;57.20
19214;DHT22;9741;51.020;5.304;2022-12-13T01:07:30;-5.40;57.30
19214;DHT22;9741;51.020;5.304;2022-12-13T01:09:58;-5.40;57.30
19214;DHT22;9741;51.020;5.304;2022-12-13T01:12:25;-5.40;57.30
19214;DHT22;9741;51.020;5.304;2022-12-13T01:14:53;-5.40;57.30
19214;DHT22;9741;51.020;5.304;2022-12-13T01:17:21;-5.40;57.30
19214;DHT22;9741;51.020;5.304;2022-12-13T01:19:51;-5.40;57.30
19214;DHT22;9741;51.020;5.304;2022-12-13T01:22:18;-5.40;57.30
19214;DHT22;9741;51.020;5.304;2022-12-13T01:24:45;-5.40;57.30
19214;DHT22;9741;51.020;5.304;2022-12-13T01:27:15;-5.40;57.30
19214;DHT22;9741;51.020;5.304;2022-12-13T01:29:43;-5.40;57.30
19214;DHT22;9741;51.020;5.304;2022-12-13T01:32:13;-5.40;57.30
19214;DHT22;9741;51.020;5.304;2022-12-13T01:34:41;-5.40;57.30
19214;DHT22;9741;51.020;5.304;2022-12-13T01:37:10;-5.40;57.30
19214;DHT22;9741;51.020;5.304;2022-12-13T01:39:37;-5.40;57.30
19214;DHT22;9741;51.020;5.304;2022-12-13T01:42:05;-5.50;57.10
19214;DHT22;9741;51.020;5.304;2022-12-13T01:44:57;-5.50;57.10
19214;DHT22;9741;51.020;5.304;2022-12-13T01:47:28;-5.50;57.10
19214;DHT22;9741;51.020;5.304;2022-12-13T01:49:58;-5.50;57.10
19214;DHT22;9741;51.020;5.304;2022-12-13T01:52:30;-5.50;57.20
19214;DHT22;9741;51.020;5.304;2022-12-13T01:54:59;-5.60;57.10
19214;DHT22;9741;51.020;5.304;2022-12-13T01:57:31;-5.60;57.10
19214;DHT22;9741;51.020;5.304;2022-12-13T01:59:59;-5.60;57.20
19214;DHT22;9741;51.020;5.304;2022-12-13T02:02:27;-5.60;57.20
19214;DHT22;9741;51.020;5.304;2022-12-13T02:04:58;-5.60;57.20
19214;DHT22;9741;51.020;5.304;2022-12-13T02:07:33;-5.60;57.20
19214;DHT22;9741;51.020;5.304;2022-12-13T02:10:04;-5.60;57.20
19214;DHT22;9741;51.020;5.304;2022-12-13T02:12:34;-5.60;57.10
19214;DHT22;9741;51.020;5.304;2022-12-13T02:15:04;-5.60;57.10
19214;DHT22;9741;51.020;5.304;2022-12-13T02:17:46;-5.60;57.10
19214;DHT22;9741;51.020;5.304;2022-12-13T02:20:39;-5.60;57.10
19214;DHT22;9741;51.020;5.304;2022-12-13T02:26:27;-5.60;57.00
19214;DHT22;9741;51.020;5.304;2022-12-13T02:29:20;-5.60;57.00
19214;DHT22;9741;51.020;5.304;2022-12-13T02:31:56;-5.70;57.00
19214;DHT22;9741;51.020;5.304;2022-12-13T02:34:28;-5.70;57.00
19214;DHT22;9741;51.020;5.304;2022-12-13T02:37:02;-5.70;57.00
19214;DHT22;9741;51.020;5.304;2022-12-13T02:39:35;-5.70;57.10
19214;DHT22;9741;51.020;5.304;2022-12-13T02:42:11;-5.70;57.00
19214;DHT22;9741;51.020;5.304;2022-12-13T02:44:46;-5.70;57.00
19214;DHT22;9741;51.020;5.304;2022-12-13T02:47:20;-5.70;57.00
19214;DHT22;9741;51.020;5.304;2022-12-13T02:49:53;-5.70;57.00
19214;DHT22;9741;51.020;5.304;2022-12-13T02:52:24;-5.70;57.10
19214;DHT22;9741;51.020;5.304;2022-12-13T02:54:53;-5.70;57.10
19214;DHT22;9741;51.020;5.304;2022-12-13T02:57:30;-5.70;57.10
19214;DHT22;9741;51.020;5.304;2022-12-13T03:00:02;-5.70;57.10
19214;DHT22;9741;51.020;5.304;2022-12-13T03:02:44;-5.70;57.10
19214;DHT22;9741;51.020;5.304;2022-12-13T03:05:38;-5.70;57.10
19214;DHT22;9741;51.020;5.304;2022-12-13T03:08:30;-5.80;56.90
19214;DHT22;9741;51.020;5.304;2022-12-13T03:11:05;-5.80;57.00
19214;DHT22;9741;51.020;5.304;2022-12-13T03:13:43;-5.80;57.10
19214;DHT22;9741;51.020;5.304;2022-12-13T03:16:23;-5.80;57.10
19214;DHT22;9741;51.020;5.304;2022-12-13T03:18:56;-5.80;57.00
19214;DHT22;9741;51.020;5.304;2022-12-13T03:21:25;-5.70;57.20
19214;DHT22;9741;51.020;5.304;2022-12-13T03:23:52;-5.70;57.20
19214;DHT22;9741;51.020;5.304;2022-12-13T03:26:23;-5.70;57.20
19214;DHT22;9741;51.020;5.304;2022-12-13T03:28:52;-5.70;57.20
19214;DHT22;9741;51.020;5.304;2022-12-13T03:31:19;-5.70;57.10
19214;DHT22;9741;51.020;5.304;2022-12-13T03:33:47;-5.70;57.50
19214;DHT22;9741;51.020;5.304;2022-12-13T03:36:17;-5.70;56.90
19214;DHT22;9741;51.020;5.304;2022-12-13T03:38:45;-5.70;56.90
19214;DHT22;9741;51.020;5.304;2022-12-13T03:41:16;-5.70;56.90
19214;DHT22;9741;51.020;5.304;2022-12-13T03:43:43;-5.70;56.90
19214;DHT22;9741;51.020;5.304;2022-12-13T03:46:14;-5.70;56.90
19214;DHT22;9741;51.020;5.304;2022-12-13T03:48:42;-5.70;57.00
19214;DHT22;9741;51.020;5.304;2022-12-13T03:51:10;-5.70;56.90
19214;DHT22;9741;51.020;5.304;2022-12-13T03:53:39;-5.70;57.00
19214;DHT22;9741;51.020;5.304;2022-12-13T03:56:07;-5.70;57.10
19214;DHT22;9741;51.020;5.304;2022-12-13T03:58:34;-5.60;57.30
19214;DHT22;9741;51.020;5.304;2022-12-13T04:01:04;-5.60;57.30
19214;DHT22;9741;51.020;5.304;2022-12-13T04:03:31;-5.60;57.20
19214;DHT22;9741;51.020;5.304;2022-12-13T04:05:59;-5.60;57.10
19214;DHT22;9741;51.020;5.304;2022-12-13T04:08:27;-5.60;56.90
19214;DHT22;9741;51.020;5.304;2022-12-13T04:10:56;-5.60;56.90
19214;DHT22;9741;51.020;5.304;2022-12-13T04:13:24;-5.60;56.90
19214;DHT22;9741;51.020;5.304;2022-12-13T04:16:00;-5.60;56.90
19214;DHT22;9741;51.020;5.304;2022-12-13T04:18:27;-5.60;57.00
19214;DHT22;9741;51.020;5.304;2022-12-13T04:20:54;-5.60;57.00
19214;DHT22;9741;51.020;5.304;2022-12-13T04:23:22;-5.60;57.00
19214;DHT22;9741;51.020;5.304;2022-12-13T04:25:50;-5.60;57.00
19214;DHT22;9741;51.020;5.304;2022-12-13T04:28:20;-5.60;57.00
19214;DHT22;9741;51.020;5.304;2022-12-13T04:30:47;-5.60;56.90
19214;DHT22;9741;51.020;5.304;2022-12-13T04:33:15;-5.70;56.80
19214;DHT22;9741;51.020;5.304;2022-12-13T04:35:43;-5.70;56.90
19214;DHT22;9741;51.020;5.304;2022-12-13T04:38:11;-5.70;56.90
19214;DHT22;9741;51.020;5.304;2022-12-13T04:40:39;-5.60;57.20
19214;DHT22;9741;51.020;5.304;2022-12-13T04:43:07;-5.60;57.30
19214;DHT22;9741;51.020;5.304;2022-12-13T04:45:36;-5.50;57.40
19214;DHT22;9741;51.020;5.304;2022-12-13T04:48:05;-5.40;57.60
19214;DHT22;9741;51.020;5.304;2022-12-13T04:50:34;-5.40;57.60
19214;DHT22;9741;51.020;5.304;2022-12-13T04:53:02;-5.30;57.50
19214;DHT22;9741;51.020;5.304;2022-12-13T04:55:30;-5.30;57.40
19214;DHT22;9741;51.020;5.304;2022-12-13T04:57:57;-5.20;57.30
19214;DHT22;9741;51.020;5.304;2022-12-13T05:00:25;-5.20;57.20
19214;DHT22;9741;51.020;5.304;2022-12-13T05:02:54;-5.20;57.10
19214;DHT22;9741;51.020;5.304;2022-12-13T05:05:22;-5.20;57.10
19214;DHT22;9741;51.020;5.304;2022-12-13T05:07:50;-5.20;57.10
19214;DHT22;9741;51.020;5.304;2022-12-13T05:10:18;-5.20;57.10
19214;DHT22;9741;51.020;5.304;2022-12-13T05:12:45;-5.20;57.10
19214;DHT22;9741;51.020;5.304;2022-12-13T05:15:13;-5.20;57.00
19214;DHT22;9741;51.020;5.304;2022-12-13T05:17:41;-5.30;56.90
19214;DHT22;9741;51.020;5.304;2022-12-13T05:20:11;-5.30;56.80
19214;DHT22;9741;51.020;5.304;2022-12-13T05:22:38;-5.30;56.80
19214;DHT22;9741;51.020;5.304;2022-12-13T05:25:07;-5.30;56.90
19214;DHT22;9741;51.020;5.304;2022-12-13T05:27:34;-5.30;57.00
19214;DHT22;9741;51.020;5.304;2022-12-13T05:30:01;-5.40;56.80
19214;DHT22;9741;51.020;5.304;2022-12-13T05:32:31;-5.40;56.80
19214;DHT22;9741;51.020;5.304;2022-12-13T05:34:59;-5.40;56.80
19214;DHT22;9741;51.020;5.304;2022-12-13T05:37:28;-5.50;56.60
19214;DHT22;9741;51.020;5.304;2022-12-13T05:39:56;-5.50;56.70
19214;DHT22;9741;51.020;5.304;2022-12-13T05:42:23;-5.60;56.60
19214;DHT22;9741;51.020;5.304;2022-12-13T05:44:51;-5.60;56.60
19214;DHT22;9741;51.020;5.304;2022-12-13T05:47:19;-5.70;56.50
19214;DHT22;9741;51.020;5.304;2022-12-13T05:49:46;-5.70;56.60
19214;DHT22;9741;51.020;5.304;2022-12-13T05:52:16;-5.80;56.50
19214;DHT22;9741;51.020;5.304;2022-12-13T05:54:48;-5.80;56.60
19214;DHT22;9741;51.020;5.304;2022-12-13T05:57:15;-5.90;56.50
19214;DHT22;9741;51.020;5.304;2022-12-13T05:59:43;-5.90;56.50
19214;DHT22;9741;51.020;5.304;2022-12-13T06:02:11;-5.90;56.50
19214;DHT22;9741;51.020;5.304;2022-12-13T06:04:39;-6.00;56.40
19214;DHT22;9741;51.020;5.304;2022-12-13T06:07:07;-6.00;56.50
19214;DHT22;9741;51.020;5.304;2022-12-13T06:09:34;-6.10;56.40
19214;DHT22;9741;51.020;5.304;2022-12-13T06:12:04;-6.10;56.50
19214;DHT22;9741;51.020;5.304;2022-12-13T06:14:32;-6.10;56.50
19214;DHT22;9741;51.020;5.304;2022-12-13T06:17:00;-6.10;56.50
19214;DHT22;9741;51.020;5.304;2022-12-13T06:19:28;-6.20;56.40
19214;DHT22;9741;51.020;5.304;2022-12-13T06:21:56;-6.20;56.40
19214;DHT22;9741;51.020;5.304;2022-12-13T06:24:24;-6.20;56.50
19214;DHT22;9741;51.020;5.304;2022-12-13T06:26:52;-6.20;56.50
19214;DHT22;9741;51.020;5.304;2022-12-13T06:29:22;-6.20;56.50
19214;DHT22;9741;51.020;5.304;2022-12-13T06:31:55;-6.30;56.40
19214;DHT22;9741;51.020;5.304;2022-12-13T06:34:23;-6.30;56.40
19214;DHT22;9741;51.020;5.304;2022-12-13T06:36:51;-6.30;56.50
19214;DHT22;9741;51.020;5.304;2022-12-13T06:39:19;-6.30;56.50
19214;DHT22;9741;51.020;5.304;2022-12-13T06:41:47;-6.30;56.50
19214;DHT22;9741;51.020;5.304;2022-12-13T06:44:15;-6.30;56.50
19214;DHT22;9741;51.020;5.304;2022-12-13T06:46:43;-6.30;56.50
19214;DHT22;9741;51.020;5.304;2022-12-13T06:49:11;-6.40;56.50
19214;DHT22;9741;51.020;5.304;2022-12-13T06:51:39;-6.40;56.50
19214;DHT22;9741;51.020;5.304;2022-12-13T06:54:07;-6.30;56.60
19214;DHT22;9741;51.020;5.304;2022-12-13T06:56:35;-6.30;57.20
19214;DHT22;9741;51.020;5.304;2022-12-13T06:59:03;-6.30;56.50
19214;DHT22;9741;51.020;5.304;2022-12-13T07:01:30;-6.30;56.50
19214;DHT22;9741;51.020;5.304;2022-12-13T07:03:59;-6.40;56.30
19214;DHT22;9741;51.020;5.304;2022-12-13T07:06:27;-6.40;56.20
19214;DHT22;9741;51.020;5.304;2022-12-13T07:08:55;-6.40;56.20
19214;DHT22;9741;51.020;5.304;2022-12-13T07:11:24;-6.50;56.20
19214;DHT22;9741;51.020;5.304;2022-12-13T07:13:52;-6.50;56.20
19214;DHT22;9741;51.020;5.304;2022-12-13T07:16:21;-6.50;56.20
19214;DHT22;9741;51.020;5.304;2022-12-13T07:18:52;-6.50;56.20
19214;DHT22;9741;51.020;5.304;2022-12-13T07:21:21;-6.60;56.20
19214;DHT22;9741;51.020;5.304;2022-12-13T07:23:50;-6.60;56.20
19214;DHT22;9741;51.020;5.304;2022-12-13T07:26:18;-6.60;56.20
19214;DHT22;9741;51.020;5.304;2022-12-13T07:28:46;-6.60;56.10
19214;DHT22;9741;51.020;5.304;2022-12-13T07:31:14;-6.60;56.20
19214;DHT22;9741;51.020;5.304;2022-12-13T07:33:42;-6.60;56.20
19214;DHT22;9741;51.020;5.304;2022-12-13T07:36:12;-6.70;56.20
19214;DHT22;9741;51.020;5.304;2022-12-13T07:38:41;-6.70;56.20
19214;DHT22;9741;51.020;5.304;2022-12-13T07:41:09;-6.70;56.20
19214;DHT22;9741;51.020;5.304;2022-12-13T07:43:37;-6.70;56.20
19214;DHT22;9741;51.020;5.304;2022-12-13T07:46:05;-6.70;56.20
19214;DHT22;9741;51.020;5.304;2022-12-13T07:48:33;-6.70;56.20
19214;DHT22;9741;51.020;5.304;2022-12-13T07:51:02;-6.70;56.20
19214;DHT22;9741;51.020;5.304;2022-12-13T07:53:31;-6.70;56.20
19214;DHT22;9741;51.020;5.304;2022-12-13T07:56:02;-6.70;56.20
19214;DHT22;9741;51.020;5.304;2022-12-13T07:58:30;-6.60;56.30
19214;DHT22;9741;51.020;5.304;2022-12-13T08:00:59;-6.60;56.40
19214;DHT22;9741;51.020;5.304;2022-12-13T08:03:27;-6.60;56.50
19214;DHT22;9741;51.020;5.304;2022-12-13T08:05:59;-6.50;56.60
19214;DHT22;9741;51.020;5.304;2022-12-13T08:08:26;-6.40;56.70
19214;DHT22;9741;51.020;5.304;2022-12-13T08:10:54;-6.40;56.60
19214;DHT22;9741;51.020;5.304;2022-12-13T08:13:23;-6.30;56.70
19214;DHT22;9741;51.020;5.304;2022-12-13T08:15:56;-6.30;56.70
19214;DHT22;9741;51.020;5.304;2022-12-13T08:18:24;-6.20;56.80
19214;DHT22;9741;51.020;5.304;2022-12-13T08:20:56;-6.10;56.90
19214;DHT22;9741;51.020;5.304;2022-12-13T08:23:24;-5.90;57.10
19214;DHT22;9741;51.020;5.304;2022-12-13T08:25:52;-5.80;57.20
19214;DHT22;9741;51.020;5.304;2022-12-13T08:28:21;-5.70;57.20
19214;DHT22;9741;51.020;5.304;2022-12-13T08:30:52;-5.50;57.40
19214;DHT22;9741;51.020;5.304;2022-12-13T08:33:20;-5.40;57.50
19214;DHT22;9741;51.020;5.304;2022-12-13T08:35:47;-5.20;57.60
19214;DHT22;9741;51.020;5.304;2022-12-13T08:38:16;-5.00;57.70
19214;DHT22;9741;51.020;5.304;2022-12-13T08:40:44;-4.80;57.90
19214;DHT22;9741;51.020;5.304;2022-12-13T08:43:12;-4.70;57.90
19214;DHT22;9741;51.020;5.304;2022-12-13T08:45:40;-4.50;57.90
19214;DHT22;9741;51.020;5.304;2022-12-13T08:48:11;-4.30;57.90
19214;DHT22;9741;51.020;5.304;2022-12-13T08:50:38;-4.20;57.80
19214;DHT22;9741;51.020;5.304;2022-12-13T08:53:06;-4.10;57.70
19214;DHT22;9741;51.020;5.304;2022-12-13T08:55:35;-3.90;57.80
19214;DHT22;9741;51.020;5.304;2022-12-13T08:58:03;-3.80;57.90
19214;DHT22;9741;51.020;5.304;2022-12-13T09:00:33;-3.70;57.90
19214;DHT22;9741;51.020;5.304;2022-12-13T09:03:02;-3.70;57.80
19214;DHT22;9741;51.020;5.304;2022-12-13T09:05:31;-3.60;57.80
19214;DHT22;9741;51.020;5.304;2022-12-13T09:07:59;-3.50;57.90
19214;DHT22;9741;51.020;5.304;2022-12-13T09:10:29;-3.40;57.90
19214;DHT22;9741;51.020;5.304;2022-12-13T09:12:57;-3.30;58.00
19214;DHT22;9741;51.020;5.304;2022-12-13T09:15:26;-3.20;58.00
19214;DHT22;9741;51.020;5.304;2022-12-13T09:17:54;-3.10;58.20
19214;DHT22;9741;51.020;5.304;2022-12-13T09:20:22;-2.90;58.30
19214;DHT22;9741;51.020;5.304;2022-12-13T09:22:51;-2.80;58.40
19214;DHT22;9741;51.020;5.304;2022-12-13T09:25:19;-2.70;58.40
19214;DHT22;9741;51.020;5.304;2022-12-13T09:27:46;-2.50;58.50
19214;DHT22;9741;51.020;5.304;2022-12-13T09:30:14;-2.40;58.40
19214;DHT22;9741;51.020;5.304;2022-12-13T09:32:42;-2.20;58.50
19214;DHT22;9741;51.020;5.304;2022-12-13T09:35:15;-2.20;58.40
19214;DHT22;9741;51.020;5.304;2022-12-13T09:37:43;-2.10;58.30
19214;DHT22;9741;51.020;5.304;2022-12-13T09:40:18;-2.10;58.20
19214;DHT22;9741;51.020;5.304;2022-12-13T09:42:49;-2.10;58.20
19214;DHT22;9741;51.020;5.304;2022-12-13T09:45:19;-2.10;58.30
19214;DHT22;9741;51.020;5.304;2022-12-13T09:47:48;-2.00;58.50
19214;DHT22;9741;51.020;5.304;2022-12-13T09:50:23;-1.90;58.60
19214;DHT22;9741;51.020;5.304;2022-12-13T09:52:52;-1.80;58.80
19214;DHT22;9741;51.020;5.304;2022-12-13T09:55:25;-1.70;59.00
19214;DHT22;9741;51.020;5.304;2022-12-13T09:57:54;-1.60;59.10
19214;DHT22;9741;51.020;5.304;2022-12-13T10:00:26;-1.50;59.10
19214;DHT22;9741;51.020;5.304;2022-12-13T10:02:57;-1.40;59.00
19214;DHT22;9741;51.020;5.304;2022-12-13T10:05:27;-1.30;58.90
19214;DHT22;9741;51.020;5.304;2022-12-13T10:07:58;-1.20;58.90
19214;DHT22;9741;51.020;5.304;2022-12-13T10:10:28;-1.20;58.90
19214;DHT22;9741;51.020;5.304;2022-12-13T10:13:05;-1.10;59.00
19214;DHT22;9741;51.020;5.304;2022-12-13T10:15:37;-1.10;59.00
19214;DHT22;9741;51.020;5.304;2022-12-13T10:18:09;-1.10;58.90
19214;DHT22;9741;51.020;5.304;2022-12-13T10:20:40;-1.00;59.10
19214;DHT22;9741;51.020;5.304;2022-12-13T10:23:09;-1.00;59.10
19214;DHT22;9741;51.020;5.304;2022-12-13T10:25:47;-1.00;59.20
19214;DHT22;9741;51.020;5.304;2022-12-13T10:28:18;-0.90;59.20
19214;DHT22;9741;51.020;5.304;2022-12-13T10:30:51;-0.80;59.30
19214;DHT22;9741;51.020;5.304;2022-12-13T10:33:23;-0.80;59.30
19214;DHT22;9741;51.020;5.304;2022-12-13T10:36:06;-0.70;59.40
19214;DHT22;9741;51.020;5.304;2022-12-13T10:38:36;-0.60;59.50
19214;DHT22;9741;51.020;5.304;2022-12-13T10:41:32;-0.50;59.60
19214;DHT22;9741;51.020;5.304;2022-12-13T10:44:17;-0.40;59.70
19214;DHT22;9741;51.020;5.304;2022-12-13T10:46:52;-0.20;60.00
19214;DHT22;9741;51.020;5.304;2022-12-13T10:49:34;-0.10;59.90
19214;DHT22;9741;51.020;5.304;2022-12-13T10:52:04;0.10;59.90
19214;DHT22;9741;51.020;5.304;2022-12-13T10:54:33;0.20;59.90
19214;DHT22;9741;51.020;5.304;2022-12-13T10:57:04;0.30;59.80
19214;DHT22;9741;51.020;5.304;2022-12-13T10:59:36;0.40;59.90
19214;DHT22;9741;51.020;5.304;2022-12-13T11:02:32;0.50;59.90
19214;DHT22;9741;51.020;5.304;2022-12-13T11:05:22;0.70;60.10
19214;DHT22;9741;51.020;5.304;2022-12-13T11:07:51;0.80;60.00
19214;DHT22;9741;51.020;5.304;2022-12-13T11:10:25;0.80;59.90
19214;DHT22;9741;51.020;5.304;2022-12-13T11:12:58;0.90;59.90
19214;DHT22;9741;51.020;5.304;2022-12-13T11:15:29;1.00;60.00
19214;DHT22;9741;51.020;5.304;2022-12-13T11:18:00;1.10;60.00
19214;DHT22;9741;51.020;5.304;2022-12-13T11:20:30;1.10;60.00
19214;DHT22;9741;51.020;5.304;2022-12-13T11:23:02;1.20;60.00
19214;DHT22;9741;51.020;5.304;2022-12-13T11:25:35;1.20;59.90
19214;DHT22;9741;51.020;5.304;2022-12-13T11:28:27;1.20;59.80
19214;DHT22;9741;51.020;5.304;2022-12-13T11:31:05;1.20;59.80
19214;DHT22;9741;51.020;5.304;2022-12-13T11:33:43;1.30;59.90
19214;DHT22;9741;51.020;5.304;2022-12-13T11:36:23;1.30;59.90
19214;DHT22;9741;51.020;5.304;2022-12-13T11:39:14;1.30;59.90
19214;DHT22;9741;51.020;5.304;2022-12-13T11:41:51;1.40;59.90
19214;DHT22;9741;51.020;5.304;2022-12-13T11:44:28;1.40;59.80
19214;DHT22;9741;51.020;5.304;2022-12-13T11:47:00;1.50;59.90
19214;DHT22;9741;51.020;5.304;2022-12-13T11:49:36;1.50;59.80
19214;DHT22;9741;51.020;5.304;2022-12-13T11:52:11;1.60;59.80
19214;DHT22;9741;51.020;5.304;2022-12-13T11:54:47;1.60;59.60
19214;DHT22;9741;51.020;5.304;2022-12-13T11:57:29;1.60;59.60
19214;DHT22;9741;51.020;5.304;2022-12-13T12:00:05;1.60;59.50
19214;DHT22;9741;51.020;5.304;2022-12-13T12:02:38;1.60;59.40
19214;DHT22;9741;51.020;5.304;2022-12-13T12:05:26;1.60;59.30
19214;DHT22;9741;51.020;5.304;2022-12-13T12:07:58;1.60;59.30
19214;DHT22;9741;51.020;5.304;2022-12-13T12:10:31;1.60;59.20
19214;DHT22;9741;51.020;5.304;2022-12-13T12:13:05;1.60;59.60
19214;DHT22;9741;51.020;5.304;2022-12-13T12:15:41;1.60;59.10
19214;DHT22;9741;51.020;5.304;2022-12-13T12:18:12;1.60;59.10
19214;DHT22;9741;51.020;5.304;2022-12-13T12:20:58;1.60;59.00
19214;DHT22;9741;51.020;5.304;2022-12-13T12:23:39;1.60;58.90
19214;DHT22;9741;51.020;5.304;2022-12-13T12:26:12;1.60;58.90
19214;DHT22;9741;51.020;5.304;2022-12-13T12:28:57;1.60;58.70
19214;DHT22;9741;51.020;5.304;2022-12-13T12:31:31;1.60;58.80
19214;DHT22;9741;51.020;5.304;2022-12-13T12:34:06;1.60;58.70
19214;DHT22;9741;51.020;5.304;2022-12-13T12:36:49;1.60;58.70
19214;DHT22;9741;51.020;5.304;2022-12-13T12:39:50;1.60;58.70
19214;DHT22;9741;51.020;5.304;2022-12-13T12:42:41;1.60;58.70
19214;DHT22;9741;51.020;5.304;2022-12-13T12:45:23;1.70;58.70
19214;DHT22;9741;51.020;5.304;2022-12-13T12:48:04;1.70;58.60
19214;DHT22;9741;51.020;5.304;2022-12-13T12:50:43;1.70;58.50
19214;DHT22;9741;51.020;5.304;2022-12-13T12:53:28;1.70;58.50
19214;DHT22;9741;51.020;5.304;2022-12-13T12:56:04;1.80;58.60
19214;DHT22;9741;51.020;5.304;2022-12-13T12:58:41;1.80;58.40
19214;DHT22;9741;51.020;5.304;2022-12-13T13:01:20;1.80;58.40
19214;DHT22;9741;51.020;5.304;2022-12-13T13:03:54;1.80;58.30
19214;DHT22;9741;51.020;5.304;2022-12-13T13:06:28;1.90;58.30
19214;DHT22;9741;51.020;5.304;2022-12-13T13:08:58;1.90;58.20
19214;DHT22;9741;51.020;5.304;2022-12-13T13:11:29;1.90;58.00
19214;DHT22;9741;51.020;5.304;2022-12-13T13:14:02;1.90;57.90
19214;DHT22;9741;51.020;5.304;2022-12-13T13:16:34;1.90;57.80
19214;DHT22;9741;51.020;5.304;2022-12-13T13:19:04;1.80;57.70
19214;DHT22;9741;51.020;5.304;2022-12-13T13:21:44;1.90;57.80
19214;DHT22;9741;51.020;5.304;2022-12-13T13:24:23;1.90;57.70
19214;DHT22;9741;51.020;5.304;2022-12-13T13:26:53;1.80;57.50
19214;DHT22;9741;51.020;5.304;2022-12-13T13:29:32;1.80;57.40
19214;DHT22;9741;51.020;5.304;2022-12-13T13:32:05;1.70;57.10
19214;DHT22;9741;51.020;5.304;2022-12-13T13:34:35;1.70;57.10
19214;DHT22;9741;51.020;5.304;2022-12-13T13:37:04;1.60;57.00
19214;DHT22;9741;51.020;5.304;2022-12-13T13:39:58;1.60;57.00
19214;DHT22;9741;51.020;5.304;2022-12-13T13:42:27;1.50;56.90
19214;DHT22;9741;51.020;5.304;2022-12-13T13:45:17;1.50;56.90
19214;DHT22;9741;51.020;5.304;2022-12-13T13:48:10;1.40;56.90
19214;DHT22;9741;51.020;5.304;2022-12-13T13:51:11;1.40;56.90
19214;DHT22;9741;51.020;5.304;2022-12-13T14:03:27;1.30;56.80
19214;DHT22;9741;51.020;5.304;2022-12-13T14:09:46;1.20;56.80
19214;DHT22;9741;51.020;5.304;2022-12-13T14:15:57;1.20;56.90
19214;DHT22;9741;51.020;5.304;2022-12-13T14:19:03;1.20;56.80
19214;DHT22;9741;51.020;5.304;2022-12-13T14:21:45;1.10;56.80
19214;DHT22;9741;51.020;5.304;2022-12-13T14:24:36;1.10;56.70
19214;DHT22;9741;51.020;5.304;2022-12-13T14:27:17;1.10;56.70
19214;DHT22;9741;51.020;5.304;2022-12-13T14:29:47;1.10;56.80
19214;DHT22;9741;51.020;5.304;2022-12-13T14:32:20;1.10;56.70
19214;DHT22;9741;51.020;5.304;2022-12-13T14:34:48;1.10;56.70
19214;DHT22;9741;51.020;5.304;2022-12-13T14:37:23;1.00;56.50
19214;DHT22;9741;51.020;5.304;2022-12-13T14:39:53;1.00;56.50
19214;DHT22;9741;51.020;5.304;2022-12-13T14:42:24;1.00;57.10
19214;DHT22;9741;51.020;5.304;2022-12-13T14:44:53;1.00;56.50
19214;DHT22;9741;51.020;5.304;2022-12-13T14:47:21;1.00;56.50
19214;DHT22;9741;51.020;5.304;2022-12-13T14:49:53;1.00;56.50
19214;DHT22;9741;51.020;5.304;2022-12-13T14:52:23;0.90;56.40
19214;DHT22;9741;51.020;5.304;2022-12-13T14:54:53;0.90;56.30
19214;DHT22;9741;51.020;5.304;2022-12-13T14:57:24;0.90;56.30
19214;DHT22;9741;51.020;5.304;2022-12-13T14:59:55;0.80;56.30
19214;DHT22;9741;51.020;5.304;2022-12-13T15:02:25;0.80;56.30
19214;DHT22;9741;51.020;5.304;2022-12-13T15:04:53;0.80;56.30
19214;DHT22;9741;51.020;5.304;2022-12-13T15:07:25;0.70;56.20
19214;DHT22;9741;51.020;5.304;2022-12-13T15:09:56;0.70;56.30
19214;DHT22;9741;51.020;5.304;2022-12-13T15:12:26;0.60;56.20
19214;DHT22;9741;51.020;5.304;2022-12-13T15:14:57;0.60;56.30
19214;DHT22;9741;51.020;5.304;2022-12-13T15:17:29;0.50;56.30
19214;DHT22;9741;51.020;5.304;2022-12-13T15:19:58;0.50;56.30
19214;DHT22;9741;51.020;5.304;2022-12-13T15:22:26;0.50;56.30
19214;DHT22;9741;51.020;5.304;2022-12-13T15:24:54;0.40;56.30
19214;DHT22;9741;51.020;5.304;2022-12-13T15:27:22;0.40;56.30
19214;DHT22;9741;51.020;5.304;2022-12-13T15:29:52;0.40;56.30
19214;DHT22;9741;51.020;5.304;2022-12-13T15:32:20;0.40;56.30
19214;DHT22;9741;51.020;5.304;2022-12-13T15:34:49;0.30;56.30
19214;DHT22;9741;51.020;5.304;2022-12-13T15:37:23;0.30;56.30
19214;DHT22;9741;51.020;5.304;2022-12-13T15:39:56;0.30;56.30
19214;DHT22;9741;51.020;5.304;2022-12-13T15:42:29;0.30;56.40
19214;DHT22;9741;51.020;5.304;2022-12-13T15:45:00;0.30;56.40
19214;DHT22;9741;51.020;5.304;2022-12-13T15:47:30;0.30;56.40
19214;DHT22;9741;51.020;5.304;2022-12-13T15:49:58;0.20;56.30
19214;DHT22;9741;51.020;5.304;2022-12-13T15:52:30;0.20;56.30
19214;DHT22;9741;51.020;5.304;2022-12-13T15:55:01;0.20;56.30
19214;DHT22;9741;51.020;5.304;2022-12-13T15:57:30;0.20;56.30
19214;DHT22;9741;51.020;5.304;2022-12-13T16:00:06;0.20;56.30
19214;DHT22;9741;51.020;5.304;2022-12-13T16:02:45;0.20;56.30
19214;DHT22;9741;51.020;5.304;2022-12-13T16:05:22;0.20;56.30
19214;DHT22;9741;51.020;5.304;2022-12-13T16:07:50;0.10;56.20
19214;DHT22;9741;51.020;5.304;2022-12-13T16:10:18;0.10;56.20
19214;DHT22;9741;51.020;5.304;2022-12-13T16:12:49;0.10;56.30
19214;DHT22;9741;51.020;5.304;2022-12-13T16:15:20;0.00;56.60
19214;DHT22;9741;51.020;5.304;2022-12-13T16:17:50;0.00;56.20
19214;DHT22;9741;51.020;5.304;2022-12-13T16:20:20;0.00;56.30
19214;DHT22;9741;51.020;5.304;2022-12-13T16:22:48;0.00;56.30
19214;DHT22;9741;51.020;5.304;2022-12-13T16:25:17;0.00;56.30
19214;DHT22;9741;51.020;5.304;2022-12-13T16:27:45;-0.10;56.20
19214;DHT22;9741;51.020;5.304;2022-12-13T16:30:22;-0.10;56.20
19214;DHT22;9741;51.020;5.304;2022-12-13T16:32:50;-0.10;56.30
19214;DHT22;9741;51.020;5.304;2022-12-13T16:35:18;-0.10;56.30
19214;DHT22;9741;51.020;5.304;2022-12-13T16:37:46;-0.10;56.30